sensor_id;sensor_type;location;lat;lon;timestamp;P1;durP1;ratioP1;P2;durP2;ratioP2
61411;SDS011;47278;49.732;7.690;2023-04-24T00:01:39;3.88;;;1.30;;
61411;SDS011;47278;49.732;7.690;2023-04-24T00:04:05;2.35;;;1.80;;
61411;SDS011;47278;49.732;7.690;2023-04-24T00:06:32;2.72;;;1.90;;
61411;SDS011;47278;49.732;7.690;2023-04-24T00:09:01;20.77;;;9.70;;
61411;SDS011;47278;49.732;7.690;2023-04-24T00:11:28;4.47;;;1.27;;
61411;SDS011;47278;49.732;7.690;2023-04-24T00:13:54;4.47;;;1.58;;
61411;SDS011;47278;49.732;7.690;2023-04-24T00:16:20;2.50;;;1.50;;
61411;SDS011;47278;49.732;7.690;2023-04-24T00:18:46;2.75;;;1.60;;
61411;SDS011;47278;49.732;7.690;2023-04-24T00:21:13;1.58;;;1.48;;
61411;SDS011;47278;49.732;7.690;2023-04-24T00:23:39;3.60;;;1.50;;
61411;SDS011;47278;49.732;7.690;2023-04-24T00:26:05;2.63;;;1.30;;
61411;SDS011;47278;49.732;7.690;2023-04-24T00:28:31;1.48;;;1.35;;
61411;SDS011;47278;49.732;7.690;2023-04-24T00:30:57;1.60;;;1.25;;
61411;SDS011;47278;49.732;7.690;2023-04-24T00:33:22;3.75;;;1.30;;
61411;SDS011;47278;49.732;7.690;2023-04-24T00:35:48;3.20;;;1.30;;
61411;SDS011;47278;49.732;7.690;2023-04-24T00:38:13;2.40;;;1.60;;
61411;SDS011;47278;49.732;7.690;2023-04-24T00:40:39;5.38;;;1.50;;
61411;SDS011;47278;49.732;7.690;2023-04-24T00:43:05;3.60;;;1.60;;
61411;SDS011;47278;49.732;7.690;2023-04-24T00:45:31;4.57;;;2.22;;
61411;SDS011;47278;49.732;7.690;2023-04-24T00:47:57;5.90;;;1.40;;
61411;SDS011;47278;49.732;7.690;2023-04-24T00:50:23;5.35;;;1.25;;
61411;SDS011;47278;49.732;7.690;2023-04-24T00:52:50;4.32;;;1.50;;
61411;SDS011;47278;49.732;7.690;2023-04-24T00:55:16;2.58;;;1.20;;
61411;SDS011;47278;49.732;7.690;2023-04-24T00:57:42;6.07;;;1.40;;
61411;SDS011;47278;49.732;7.690;2023-04-24T01:00:09;2.63;;;1.20;;
61411;SDS011;47278;49.732;7.690;2023-04-24T01:02:36;3.85;;;1.65;;
61411;SDS011;47278;49.732;7.690;2023-04-24T01:05:05;3.17;;;1.48;;
61411;SDS011;47278;49.732;7.690;2023-04-24T01:07:32;3.15;;;1.50;;
61411;SDS011;47278;49.732;7.690;2023-04-24T01:09:58;2.67;;;1.38;;
61411;SDS011;47278;49.732;7.690;2023-04-24T01:12:24;2.92;;;1.40;;
61411;SDS011;47278;49.732;7.690;2023-04-24T01:14:49;3.83;;;1.42;;
61411;SDS011;47278;49.732;7.690;2023-04-24T01:17:16;2.30;;;1.42;;
61411;SDS011;47278;49.732;7.690;2023-04-24T01:19:41;4.60;;;1.63;;
61411;SDS011;47278;49.732;7.690;2023-04-24T01:22:13;2.47;;;1.52;;
61411;SDS011;47278;49.732;7.690;2023-04-24T01:24:39;2.63;;;1.40;;
61411;SDS011;47278;49.732;7.690;2023-04-24T01:27:05;3.78;;;1.55;;
61411;SDS011;47278;49.732;7.690;2023-04-24T01:29:31;1.90;;;1.30;;
61411;SDS011;47278;49.732;7.690;2023-04-24T01:31:57;1.27;;;1.08;;
61411;SDS011;47278;49.732;7.690;2023-04-24T01:34:23;1.10;;;1.00;;
61411;SDS011;47278;49.732;7.690;2023-04-24T01:36:49;2.88;;;1.20;;
61411;SDS011;47278;49.732;7.690;2023-04-24T01:39:15;1.48;;;1.15;;
61411;SDS011;47278;49.732;7.690;2023-04-24T01:41:41;1.83;;;1.02;;
61411;SDS011;47278;49.732;7.690;2023-04-24T01:44:07;2.78;;;0.80;;
61411;SDS011;47278;49.732;7.690;2023-04-24T01:46:33;4.80;;;1.08;;
61411;SDS011;47278;49.732;7.690;2023-04-24T01:49:01;1.75;;;1.00;;
61411;SDS011;47278;49.732;7.690;2023-04-24T01:51:27;1.70;;;1.20;;
61411;SDS011;47278;49.732;7.690;2023-04-24T01:53:52;1.92;;;0.90;;
61411;SDS011;47278;49.732;7.690;2023-04-24T01:56:19;1.35;;;0.90;;
61411;SDS011;47278;49.732;7.690;2023-04-24T01:58:46;1.50;;;0.90;;
61411;SDS011;47278;49.732;7.690;2023-04-24T02:01:19;1.58;;;0.93;;
61411;SDS011;47278;49.732;7.690;2023-04-24T02:03:46;1.38;;;1.00;;
61411;SDS011;47278;49.732;7.690;2023-04-24T02:06:12;1.85;;;1.10;;
61411;SDS011;47278;49.732;7.690;2023-04-24T02:08:38;1.52;;;0.90;;
61411;SDS011;47278;49.732;7.690;2023-04-24T02:11:04;1.67;;;0.90;;
61411;SDS011;47278;49.732;7.690;2023-04-24T02:13:30;2.22;;;1.10;;
61411;SDS011;47278;49.732;7.690;2023-04-24T02:15:57;2.25;;;1.13;;
61411;SDS011;47278;49.732;7.690;2023-04-24T02:18:23;3.63;;;1.10;;
61411;SDS011;47278;49.732;7.690;2023-04-24T02:20:49;1.42;;;1.23;;
61411;SDS011;47278;49.732;7.690;2023-04-24T02:23:15;1.10;;;1.00;;
61411;SDS011;47278;49.732;7.690;2023-04-24T02:25:41;1.27;;;1.10;;
61411;SDS011;47278;49.732;7.690;2023-04-24T02:28:06;1.30;;;1.20;;
61411;SDS011;47278;49.732;7.690;2023-04-24T02:30:32;1.42;;;1.20;;
61411;SDS011;47278;49.732;7.690;2023-04-24T02:32:58;1.23;;;1.10;;
61411;SDS011;47278;49.732;7.690;2023-04-24T02:35:23;2.80;;;1.45;;
61411;SDS011;47278;49.732;7.690;2023-04-24T02:37:49;1.20;;;1.10;;
61411;SDS011;47278;49.732;7.690;2023-04-24T02:40:14;2.78;;;1.23;;
61411;SDS011;47278;49.732;7.690;2023-04-24T02:42:40;2.58;;;1.27;;
61411;SDS011;47278;49.732;7.690;2023-04-24T02:45:06;1.33;;;0.90;;
61411;SDS011;47278;49.732;7.690;2023-04-24T02:47:32;1.10;;;1.00;;
61411;SDS011;47278;49.732;7.690;2023-04-24T02:49:57;1.20;;;1.10;;
61411;SDS011;47278;49.732;7.690;2023-04-24T02:52:23;1.27;;;1.17;;
61411;SDS011;47278;49.732;7.690;2023-04-24T02:54:49;1.30;;;1.20;;
61411;SDS011;47278;49.732;7.690;2023-04-24T02:57:15;3.38;;;1.58;;
61411;SDS011;47278;49.732;7.690;2023-04-24T02:59:41;1.30;;;1.20;;
61411;SDS011;47278;49.732;7.690;2023-04-24T03:02:07;1.60;;;1.42;;
61411;SDS011;47278;49.732;7.690;2023-04-24T03:04:32;1.50;;;1.33;;
61411;SDS011;47278;49.732;7.690;2023-04-24T03:06:58;1.40;;;1.30;;
61411;SDS011;47278;49.732;7.690;2023-04-24T03:09:24;5.05;;;1.70;;
61411;SDS011;47278;49.732;7.690;2023-04-24T03:11:50;5.88;;;1.60;;
61411;SDS011;47278;49.732;7.690;2023-04-24T03:14:16;1.73;;;1.60;;
61411;SDS011;47278;49.732;7.690;2023-04-24T03:16:42;1.85;;;1.75;;
61411;SDS011;47278;49.732;7.690;2023-04-24T03:19:07;1.55;;;1.45;;
61411;SDS011;47278;49.732;7.690;2023-04-24T03:21:33;1.85;;;1.63;;
61411;SDS011;47278;49.732;7.690;2023-04-24T03:24:00;1.80;;;1.70;;
61411;SDS011;47278;49.732;7.690;2023-04-24T03:26:27;2.30;;;2.03;;
61411;SDS011;47278;49.732;7.690;2023-04-24T03:28:52;1.75;;;1.65;;
61411;SDS011;47278;49.732;7.690;2023-04-24T03:31:18;2.90;;;2.03;;
61411;SDS011;47278;49.732;7.690;2023-04-24T03:33:46;2.13;;;1.92;;
61411;SDS011;47278;49.732;7.690;2023-04-24T03:36:11;2.78;;;1.70;;
61411;SDS011;47278;49.732;7.690;2023-04-24T03:38:37;2.42;;;1.92;;
61411;SDS011;47278;49.732;7.690;2023-04-24T03:41:03;2.40;;;2.13;;
61411;SDS011;47278;49.732;7.690;2023-04-24T03:43:28;4.40;;;2.20;;
61411;SDS011;47278;49.732;7.690;2023-04-24T03:45:54;4.25;;;2.13;;
61411;SDS011;47278;49.732;7.690;2023-04-24T03:48:20;3.10;;;2.00;;
61411;SDS011;47278;49.732;7.690;2023-04-24T03:50:45;2.50;;;1.90;;
61411;SDS011;47278;49.732;7.690;2023-04-24T03:53:11;2.33;;;2.05;;
61411;SDS011;47278;49.732;7.690;2023-04-24T03:55:37;3.05;;;1.85;;
61411;SDS011;47278;49.732;7.690;2023-04-24T03:58:02;3.97;;;2.25;;
61411;SDS011;47278;49.732;7.690;2023-04-24T04:00:28;3.20;;;2.03;;
61411;SDS011;47278;49.732;7.690;2023-04-24T04:02:58;4.70;;;2.30;;
61411;SDS011;47278;49.732;7.690;2023-04-24T04:05:23;2.53;;;2.08;;
61411;SDS011;47278;49.732;7.690;2023-04-24T04:07:49;2.45;;;2.25;;
61411;SDS011;47278;49.732;7.690;2023-04-24T04:10:15;2.97;;;2.20;;
61411;SDS011;47278;49.732;7.690;2023-04-24T04:12:42;2.97;;;2.20;;
61411;SDS011;47278;49.732;7.690;2023-04-24T04:15:07;3.03;;;2.17;;
61411;SDS011;47278;49.732;7.690;2023-04-24T04:17:33;3.20;;;2.15;;
61411;SDS011;47278;49.732;7.690;2023-04-24T04:19:59;2.55;;;2.35;;
61411;SDS011;47278;49.732;7.690;2023-04-24T04:22:26;3.45;;;2.25;;
61411;SDS011;47278;49.732;7.690;2023-04-24T04:24:51;5.07;;;2.53;;
61411;SDS011;47278;49.732;7.690;2023-04-24T04:27:17;3.50;;;2.13;;
61411;SDS011;47278;49.732;7.690;2023-04-24T04:29:43;3.20;;;2.40;;
61411;SDS011;47278;49.732;7.690;2023-04-24T04:32:09;3.22;;;2.40;;
61411;SDS011;47278;49.732;7.690;2023-04-24T04:34:35;2.72;;;2.20;;
61411;SDS011;47278;49.732;7.690;2023-04-24T04:37:02;5.30;;;2.53;;
61411;SDS011;47278;49.732;7.690;2023-04-24T04:39:28;3.85;;;2.55;;
61411;SDS011;47278;49.732;7.690;2023-04-24T04:41:55;3.53;;;2.38;;
61411;SDS011;47278;49.732;7.690;2023-04-24T04:44:21;2.40;;;2.20;;
61411;SDS011;47278;49.732;7.690;2023-04-24T04:46:47;5.25;;;2.58;;
61411;SDS011;47278;49.732;7.690;2023-04-24T04:49:12;2.85;;;2.60;;
61411;SDS011;47278;49.732;7.690;2023-04-24T04:51:41;3.45;;;2.90;;
61411;SDS011;47278;49.732;7.690;2023-04-24T04:54:07;3.03;;;2.60;;
61411;SDS011;47278;49.732;7.690;2023-04-24T04:56:33;5.32;;;2.63;;
61411;SDS011;47278;49.732;7.690;2023-04-24T04:58:58;4.28;;;2.78;;
61411;SDS011;47278;49.732;7.690;2023-04-24T05:01:24;5.13;;;3.30;;
61411;SDS011;47278;49.732;7.690;2023-04-24T05:03:52;3.38;;;3.05;;
61411;SDS011;47278;49.732;7.690;2023-04-24T05:06:18;15.80;;;10.68;;
61411;SDS011;47278;49.732;7.690;2023-04-24T05:08:44;5.35;;;3.72;;
61411;SDS011;47278;49.732;7.690;2023-04-24T05:11:09;7.18;;;5.80;;
61411;SDS011;47278;49.732;7.690;2023-04-24T05:13:35;6.63;;;5.85;;
61411;SDS011;47278;49.732;7.690;2023-04-24T05:16:00;5.13;;;4.72;;
61411;SDS011;47278;49.732;7.690;2023-04-24T05:18:26;5.57;;;3.90;;
61411;SDS011;47278;49.732;7.690;2023-04-24T05:20:52;5.00;;;3.35;;
61411;SDS011;47278;49.732;7.690;2023-04-24T05:23:17;6.05;;;4.07;;
61411;SDS011;47278;49.732;7.690;2023-04-24T05:25:43;4.53;;;4.10;;
61411;SDS011;47278;49.732;7.690;2023-04-24T05:28:09;5.57;;;4.97;;
61411;SDS011;47278;49.732;7.690;2023-04-24T05:30:34;5.78;;;4.15;;
61411;SDS011;47278;49.732;7.690;2023-04-24T05:33:00;6.50;;;4.18;;
61411;SDS011;47278;49.732;7.690;2023-04-24T05:35:26;7.20;;;4.55;;
61411;SDS011;47278;49.732;7.690;2023-04-24T05:37:51;5.13;;;4.15;;
61411;SDS011;47278;49.732;7.690;2023-04-24T05:40:17;7.85;;;4.57;;
61411;SDS011;47278;49.732;7.690;2023-04-24T05:42:43;5.10;;;4.63;;
61411;SDS011;47278;49.732;7.690;2023-04-24T05:45:08;7.05;;;4.78;;
61411;SDS011;47278;49.732;7.690;2023-04-24T05:47:39;5.55;;;4.72;;
61411;SDS011;47278;49.732;7.690;2023-04-24T05:50:05;5.90;;;4.93;;
61411;SDS011;47278;49.732;7.690;2023-04-24T05:52:31;6.30;;;4.75;;
61411;SDS011;47278;49.732;7.690;2023-04-24T05:54:57;5.40;;;4.63;;
61411;SDS011;47278;49.732;7.690;2023-04-24T05:57:22;5.07;;;4.57;;
61411;SDS011;47278;49.732;7.690;2023-04-24T05:59:48;5.20;;;4.60;;
61411;SDS011;47278;49.732;7.690;2023-04-24T06:02:13;6.18;;;4.95;;
61411;SDS011;47278;49.732;7.690;2023-04-24T06:04:39;6.55;;;5.00;;
61411;SDS011;47278;49.732;7.690;2023-04-24T06:07:05;8.05;;;4.90;;
61411;SDS011;47278;49.732;7.690;2023-04-24T06:09:31;6.03;;;4.65;;
61411;SDS011;47278;49.732;7.690;2023-04-24T06:11:56;6.32;;;4.75;;
61411;SDS011;47278;49.732;7.690;2023-04-24T06:14:23;7.20;;;4.40;;
61411;SDS011;47278;49.732;7.690;2023-04-24T06:16:49;5.03;;;4.45;;
61411;SDS011;47278;49.732;7.690;2023-04-24T06:19:14;8.70;;;4.00;;
61411;SDS011;47278;49.732;7.690;2023-04-24T06:21:40;6.30;;;4.20;;
61411;SDS011;47278;49.732;7.690;2023-04-24T06:24:06;5.40;;;4.22;;
61411;SDS011;47278;49.732;7.690;2023-04-24T06:26:31;5.35;;;4.00;;
61411;SDS011;47278;49.732;7.690;2023-04-24T06:28:57;5.05;;;3.80;;
61411;SDS011;47278;49.732;7.690;2023-04-24T06:31:24;7.07;;;4.53;;
61411;SDS011;47278;49.732;7.690;2023-04-24T06:33:50;4.25;;;3.75;;
61411;SDS011;47278;49.732;7.690;2023-04-24T06:36:15;4.03;;;3.63;;
61411;SDS011;47278;49.732;7.690;2023-04-24T06:38:41;8.82;;;4.10;;
61411;SDS011;47278;49.732;7.690;2023-04-24T06:41:07;4.22;;;3.75;;
61411;SDS011;47278;49.732;7.690;2023-04-24T06:43:33;4.88;;;3.20;;
61411;SDS011;47278;49.732;7.690;2023-04-24T06:45:59;4.43;;;3.00;;
61411;SDS011;47278;49.732;7.690;2023-04-24T06:48:25;3.67;;;3.20;;
61411;SDS011;47278;49.732;7.690;2023-04-24T06:50:50;3.97;;;3.20;;
61411;SDS011;47278;49.732;7.690;2023-04-24T06:53:16;2.33;;;2.05;;
61411;SDS011;47278;49.732;7.690;2023-04-24T06:55:42;3.53;;;1.88;;
61411;SDS011;47278;49.732;7.690;2023-04-24T06:58:10;3.05;;;2.40;;
61411;SDS011;47278;49.732;7.690;2023-04-24T07:00:35;3.53;;;3.00;;
61411;SDS011;47278;49.732;7.690;2023-04-24T07:03:01;3.20;;;2.42;;
61411;SDS011;47278;49.732;7.690;2023-04-24T07:05:27;4.68;;;2.58;;
61411;SDS011;47278;49.732;7.690;2023-04-24T07:07:54;5.35;;;2.10;;
61411;SDS011;47278;49.732;7.690;2023-04-24T07:10:19;2.65;;;2.25;;
61411;SDS011;47278;49.732;7.690;2023-04-24T07:12:45;2.85;;;2.55;;
61411;SDS011;47278;49.732;7.690;2023-04-24T07:15:12;3.22;;;2.45;;
61411;SDS011;47278;49.732;7.690;2023-04-24T07:17:38;3.05;;;2.70;;
61411;SDS011;47278;49.732;7.690;2023-04-24T07:20:04;5.07;;;3.05;;
61411;SDS011;47278;49.732;7.690;2023-04-24T07:22:30;2.50;;;2.30;;
61411;SDS011;47278;49.732;7.690;2023-04-24T07:24:56;3.33;;;1.83;;
61411;SDS011;47278;49.732;7.690;2023-04-24T07:27:21;3.78;;;2.70;;
61411;SDS011;47278;49.732;7.690;2023-04-24T07:29:47;2.85;;;2.28;;
61411;SDS011;47278;49.732;7.690;2023-04-24T07:32:13;3.45;;;2.42;;
61411;SDS011;47278;49.732;7.690;2023-04-24T07:34:38;2.47;;;2.28;;
61411;SDS011;47278;49.732;7.690;2023-04-24T07:37:05;3.75;;;2.92;;
61411;SDS011;47278;49.732;7.690;2023-04-24T07:39:30;2.80;;;2.35;;
61411;SDS011;47278;49.732;7.690;2023-04-24T07:41:56;4.40;;;2.90;;
61411;SDS011;47278;49.732;7.690;2023-04-24T07:44:24;4.85;;;3.30;;
61411;SDS011;47278;49.732;7.690;2023-04-24T07:46:50;3.33;;;2.92;;
61411;SDS011;47278;49.732;7.690;2023-04-24T07:49:16;4.47;;;2.83;;
61411;SDS011;47278;49.732;7.690;2023-04-24T07:51:41;5.90;;;3.28;;
61411;SDS011;47278;49.732;7.690;2023-04-24T07:54:07;3.20;;;2.83;;
61411;SDS011;47278;49.732;7.690;2023-04-24T07:56:33;3.97;;;2.65;;
61411;SDS011;47278;49.732;7.690;2023-04-24T07:58:58;6.03;;;3.45;;
61411;SDS011;47278;49.732;7.690;2023-04-24T08:01:26;3.40;;;3.10;;
61411;SDS011;47278;49.732;7.690;2023-04-24T08:03:51;4.25;;;2.83;;
61411;SDS011;47278;49.732;7.690;2023-04-24T08:06:17;3.75;;;3.20;;
61411;SDS011;47278;49.732;7.690;2023-04-24T08:08:43;3.00;;;2.63;;
61411;SDS011;47278;49.732;7.690;2023-04-24T08:11:09;3.72;;;3.30;;
61411;SDS011;47278;49.732;7.690;2023-04-24T08:13:34;4.00;;;3.17;;
61411;SDS011;47278;49.732;7.690;2023-04-24T08:16:00;3.42;;;3.10;;
61411;SDS011;47278;49.732;7.690;2023-04-24T08:18:26;4.22;;;3.15;;
61411;SDS011;47278;49.732;7.690;2023-04-24T08:20:52;5.40;;;4.03;;
61411;SDS011;47278;49.732;7.690;2023-04-24T08:23:17;5.75;;;3.22;;
61411;SDS011;47278;49.732;7.690;2023-04-24T08:25:43;9.25;;;2.90;;
61411;SDS011;47278;49.732;7.690;2023-04-24T08:28:09;3.78;;;3.47;;
61411;SDS011;47278;49.732;7.690;2023-04-24T08:30:35;2.88;;;2.60;;
61411;SDS011;47278;49.732;7.690;2023-04-24T08:33:01;3.67;;;3.30;;
61411;SDS011;47278;49.732;7.690;2023-04-24T08:35:27;4.78;;;3.60;;
61411;SDS011;47278;49.732;7.690;2023-04-24T08:37:53;4.75;;;3.28;;
61411;SDS011;47278;49.732;7.690;2023-04-24T08:40:19;5.45;;;3.10;;
61411;SDS011;47278;49.732;7.690;2023-04-24T08:42:51;2.50;;;2.22;;
61411;SDS011;47278;49.732;7.690;2023-04-24T08:45:21;3.67;;;2.70;;
61411;SDS011;47278;49.732;7.690;2023-04-24T08:47:47;3.08;;;2.78;;
61411;SDS011;47278;49.732;7.690;2023-04-24T08:50:14;5.00;;;2.88;;
61411;SDS011;47278;49.732;7.690;2023-04-24T08:52:40;3.97;;;3.20;;
61411;SDS011;47278;49.732;7.690;2023-04-24T08:55:07;4.13;;;3.10;;
61411;SDS011;47278;49.732;7.690;2023-04-24T08:57:34;4.53;;;2.55;;
61411;SDS011;47278;49.732;7.690;2023-04-24T09:00:01;3.35;;;2.85;;
61411;SDS011;47278;49.732;7.690;2023-04-24T09:02:28;5.40;;;3.17;;
61411;SDS011;47278;49.732;7.690;2023-04-24T09:04:54;4.97;;;3.80;;
61411;SDS011;47278;49.732;7.690;2023-04-24T09:07:22;4.38;;;3.30;;
61411;SDS011;47278;49.732;7.690;2023-04-24T09:09:52;5.03;;;4.07;;
61411;SDS011;47278;49.732;7.690;2023-04-24T09:12:18;3.33;;;2.38;;
61411;SDS011;47278;49.732;7.690;2023-04-24T09:14:44;3.90;;;3.45;;
61411;SDS011;47278;49.732;7.690;2023-04-24T09:17:11;3.95;;;3.20;;
61411;SDS011;47278;49.732;7.690;2023-04-24T09:19:37;5.20;;;3.50;;
61411;SDS011;47278;49.732;7.690;2023-04-24T09:22:05;4.85;;;3.70;;
61411;SDS011;47278;49.732;7.690;2023-04-24T09:24:32;4.57;;;3.17;;
61411;SDS011;47278;49.732;7.690;2023-04-24T09:26:58;4.82;;;3.10;;
61411;SDS011;47278;49.732;7.690;2023-04-24T09:29:26;3.80;;;3.40;;
61411;SDS011;47278;49.732;7.690;2023-04-24T09:31:53;3.47;;;2.88;;
61411;SDS011;47278;49.732;7.690;2023-04-24T09:34:22;3.10;;;2.67;;
61411;SDS011;47278;49.732;7.690;2023-04-24T09:36:49;5.78;;;3.58;;
61411;SDS011;47278;49.732;7.690;2023-04-24T09:39:15;3.67;;;2.80;;
61411;SDS011;47278;49.732;7.690;2023-04-24T09:41:45;4.85;;;2.72;;
61411;SDS011;47278;49.732;7.690;2023-04-24T09:44:16;4.38;;;2.20;;
61411;SDS011;47278;49.732;7.690;2023-04-24T09:46:50;3.80;;;2.90;;
61411;SDS011;47278;49.732;7.690;2023-04-24T09:49:38;3.70;;;2.97;;
61411;SDS011;47278;49.732;7.690;2023-04-24T09:52:06;4.18;;;2.53;;
61411;SDS011;47278;49.732;7.690;2023-04-24T09:54:33;4.13;;;3.10;;
61411;SDS011;47278;49.732;7.690;2023-04-24T09:57:01;3.50;;;2.70;;
61411;SDS011;47278;49.732;7.690;2023-04-24T09:59:27;3.97;;;3.63;;
61411;SDS011;47278;49.732;7.690;2023-04-24T10:01:53;3.22;;;2.60;;
61411;SDS011;47278;49.732;7.690;2023-04-24T10:04:19;2.72;;;2.47;;
61411;SDS011;47278;49.732;7.690;2023-04-24T10:06:50;2.33;;;1.80;;
61411;SDS011;47278;49.732;7.690;2023-04-24T10:09:17;2.95;;;2.30;;
61411;SDS011;47278;49.732;7.690;2023-04-24T10:11:45;4.32;;;2.13;;
61411;SDS011;47278;49.732;7.690;2023-04-24T10:14:12;2.30;;;2.10;;
61411;SDS011;47278;49.732;7.690;2023-04-24T10:16:43;4.38;;;2.20;;
61411;SDS011;47278;49.732;7.690;2023-04-24T10:19:11;2.55;;;2.35;;
61411;SDS011;47278;49.732;7.690;2023-04-24T10:21:38;3.75;;;2.38;;
61411;SDS011;47278;49.732;7.690;2023-04-24T10:24:10;3.80;;;2.58;;
61411;SDS011;47278;49.732;7.690;2023-04-24T10:26:38;4.32;;;3.22;;
61411;SDS011;47278;49.732;7.690;2023-04-24T10:29:05;2.63;;;2.38;;
61411;SDS011;47278;49.732;7.690;2023-04-24T10:31:34;5.40;;;3.60;;
61411;SDS011;47278;49.732;7.690;2023-04-24T10:34:01;5.63;;;3.45;;
61411;SDS011;47278;49.732;7.690;2023-04-24T10:36:28;4.32;;;3.08;;
61411;SDS011;47278;49.732;7.690;2023-04-24T10:38:57;5.78;;;3.70;;
61411;SDS011;47278;49.732;7.690;2023-04-24T10:41:26;5.80;;;3.50;;
61411;SDS011;47278;49.732;7.690;2023-04-24T10:47:00;4.60;;;3.58;;
61411;SDS011;47278;49.732;7.690;2023-04-24T10:49:30;4.60;;;2.80;;
61411;SDS011;47278;49.732;7.690;2023-04-24T10:52:00;5.30;;;3.30;;
61411;SDS011;47278;49.732;7.690;2023-04-24T10:54:28;4.63;;;3.17;;
61411;SDS011;47278;49.732;7.690;2023-04-24T10:59:43;4.22;;;3.72;;
61411;SDS011;47278;49.732;7.690;2023-04-24T11:02:09;4.68;;;3.70;;
61411;SDS011;47278;49.732;7.690;2023-04-24T11:04:35;3.92;;;3.30;;
61411;SDS011;47278;49.732;7.690;2023-04-24T11:07:02;5.25;;;3.45;;
61411;SDS011;47278;49.732;7.690;2023-04-24T11:09:32;7.43;;;3.95;;
61411;SDS011;47278;49.732;7.690;2023-04-24T11:17:31;6.82;;;4.20;;
61411;SDS011;47278;49.732;7.690;2023-04-24T11:20:02;5.45;;;3.88;;
61411;SDS011;47278;49.732;7.690;2023-04-24T11:22:33;5.38;;;3.53;;
61411;SDS011;47278;49.732;7.690;2023-04-24T11:25:01;5.97;;;3.83;;
61411;SDS011;47278;49.732;7.690;2023-04-24T11:27:29;5.35;;;3.58;;
61411;SDS011;47278;49.732;7.690;2023-04-24T11:30:06;4.40;;;3.40;;
61411;SDS011;47278;49.732;7.690;2023-04-24T11:34:58;5.45;;;4.50;;
61411;SDS011;47278;49.732;7.690;2023-04-24T11:37:34;4.82;;;3.67;;
61411;SDS011;47278;49.732;7.690;2023-04-24T11:40:08;5.00;;;3.75;;
61411;SDS011;47278;49.732;7.690;2023-04-24T11:42:36;6.95;;;4.15;;
61411;SDS011;47278;49.732;7.690;2023-04-24T11:45:13;4.97;;;4.07;;
61411;SDS011;47278;49.732;7.690;2023-04-24T11:47:43;5.80;;;3.65;;
61411;SDS011;47278;49.732;7.690;2023-04-24T11:50:19;4.50;;;3.05;;
61411;SDS011;47278;49.732;7.690;2023-04-24T11:52:47;4.93;;;3.45;;
61411;SDS011;47278;49.732;7.690;2023-04-24T11:57:43;3.95;;;3.17;;
61411;SDS011;47278;49.732;7.690;2023-04-24T12:00:15;6.57;;;4.00;;
61411;SDS011;47278;49.732;7.690;2023-04-24T12:02:45;4.80;;;3.85;;
61411;SDS011;47278;49.732;7.690;2023-04-24T12:07:48;6.85;;;4.95;;
61411;SDS011;47278;49.732;7.690;2023-04-24T12:10:14;6.15;;;4.05;;
61411;SDS011;47278;49.732;7.690;2023-04-24T12:12:44;4.18;;;3.25;;
61411;SDS011;47278;49.732;7.690;2023-04-24T12:15:11;4.40;;;3.17;;
61411;SDS011;47278;49.732;7.690;2023-04-24T12:17:40;5.00;;;3.53;;
61411;SDS011;47278;49.732;7.690;2023-04-24T12:20:07;5.72;;;4.00;;
61411;SDS011;47278;49.732;7.690;2023-04-24T12:25:12;5.57;;;3.72;;
61411;SDS011;47278;49.732;7.690;2023-04-24T12:27:39;5.70;;;4.45;;
61411;SDS011;47278;49.732;7.690;2023-04-24T12:30:05;6.55;;;4.03;;
61411;SDS011;47278;49.732;7.690;2023-04-24T12:32:48;6.85;;;3.85;;
61411;SDS011;47278;49.732;7.690;2023-04-24T12:35:22;4.75;;;3.72;;
61411;SDS011;47278;49.732;7.690;2023-04-24T12:37:48;5.82;;;4.13;;
61411;SDS011;47278;49.732;7.690;2023-04-24T12:40:15;4.93;;;3.85;;
61411;SDS011;47278;49.732;7.690;2023-04-24T12:42:42;4.68;;;3.33;;
61411;SDS011;47278;49.732;7.690;2023-04-24T12:45:12;5.03;;;3.72;;
61411;SDS011;47278;49.732;7.690;2023-04-24T12:47:39;5.60;;;3.60;;
61411;SDS011;47278;49.732;7.690;2023-04-24T12:50:07;6.78;;;3.70;;
61411;SDS011;47278;49.732;7.690;2023-04-24T12:52:33;4.13;;;3.05;;
61411;SDS011;47278;49.732;7.690;2023-04-24T12:54:59;8.05;;;5.80;;
61411;SDS011;47278;49.732;7.690;2023-04-24T12:57:26;6.30;;;3.33;;
61411;SDS011;47278;49.732;7.690;2023-04-24T12:59:54;5.60;;;3.60;;
61411;SDS011;47278;49.732;7.690;2023-04-24T13:02:21;3.38;;;2.97;;
61411;SDS011;47278;49.732;7.690;2023-04-24T13:04:51;4.82;;;3.47;;
61411;SDS011;47278;49.732;7.690;2023-04-24T13:07:17;2.85;;;2.55;;
61411;SDS011;47278;49.732;7.690;2023-04-24T13:09:43;5.72;;;3.20;;
61411;SDS011;47278;49.732;7.690;2023-04-24T13:12:09;5.20;;;3.40;;
61411;SDS011;47278;49.732;7.690;2023-04-24T13:14:36;4.82;;;3.33;;
61411;SDS011;47278;49.732;7.690;2023-04-24T13:17:03;5.15;;;3.33;;
61411;SDS011;47278;49.732;7.690;2023-04-24T13:19:29;7.05;;;3.50;;
61411;SDS011;47278;49.732;7.690;2023-04-24T13:22:00;4.40;;;3.38;;
61411;SDS011;47278;49.732;7.690;2023-04-24T13:24:26;3.47;;;2.72;;
61411;SDS011;47278;49.732;7.690;2023-04-24T13:26:51;5.00;;;3.22;;
61411;SDS011;47278;49.732;7.690;2023-04-24T13:29:18;3.65;;;3.05;;
61411;SDS011;47278;49.732;7.690;2023-04-24T13:31:43;4.55;;;3.60;;
61411;SDS011;47278;49.732;7.690;2023-04-24T13:34:09;7.30;;;4.28;;
61411;SDS011;47278;49.732;7.690;2023-04-24T13:36:35;5.93;;;4.25;;
61411;SDS011;47278;49.732;7.690;2023-04-24T13:39:01;5.13;;;4.40;;
61411;SDS011;47278;49.732;7.690;2023-04-24T13:41:32;7.57;;;3.97;;
61411;SDS011;47278;49.732;7.690;2023-04-24T13:43:58;7.10;;;4.03;;
61411;SDS011;47278;49.732;7.690;2023-04-24T13:46:24;4.70;;;3.97;;
61411;SDS011;47278;49.732;7.690;2023-04-24T13:48:50;5.97;;;3.70;;
61411;SDS011;47278;49.732;7.690;2023-04-24T13:51:16;6.63;;;4.20;;
61411;SDS011;47278;49.732;7.690;2023-04-24T13:53:41;5.95;;;4.18;;
61411;SDS011;47278;49.732;7.690;2023-04-24T13:56:07;6.00;;;4.10;;
61411;SDS011;47278;49.732;7.690;2023-04-24T13:58:34;5.00;;;3.92;;
61411;SDS011;47278;49.732;7.690;2023-04-24T14:01:01;4.07;;;3.58;;
61411;SDS011;47278;49.732;7.690;2023-04-24T14:03:28;11.05;;;4.30;;
61411;SDS011;47278;49.732;7.690;2023-04-24T14:05:54;6.32;;;4.07;;
61411;SDS011;47278;49.732;7.690;2023-04-24T14:08:19;5.28;;;3.70;;
61411;SDS011;47278;49.732;7.690;2023-04-24T14:10:45;6.53;;;3.83;;
61411;SDS011;47278;49.732;7.690;2023-04-24T14:13:11;5.50;;;4.13;;
61411;SDS011;47278;49.732;7.690;2023-04-24T14:15:37;4.13;;;3.58;;
61411;SDS011;47278;49.732;7.690;2023-04-24T14:18:03;4.72;;;3.55;;
61411;SDS011;47278;49.732;7.690;2023-04-24T14:20:28;6.03;;;3.50;;
61411;SDS011;47278;49.732;7.690;2023-04-24T14:22:54;7.43;;;3.92;;
61411;SDS011;47278;49.732;7.690;2023-04-24T14:25:20;5.10;;;3.78;;
61411;SDS011;47278;49.732;7.690;2023-04-24T14:27:47;6.85;;;4.72;;
61411;SDS011;47278;49.732;7.690;2023-04-24T14:30:13;6.22;;;3.88;;
61411;SDS011;47278;49.732;7.690;2023-04-24T14:32:40;10.95;;;5.60;;
61411;SDS011;47278;49.732;7.690;2023-04-24T14:35:06;5.50;;;4.43;;
61411;SDS011;47278;49.732;7.690;2023-04-24T14:37:32;5.03;;;4.03;;
61411;SDS011;47278;49.732;7.690;2023-04-24T14:39:58;5.78;;;4.90;;
61411;SDS011;47278;49.732;7.690;2023-04-24T14:42:24;5.63;;;4.80;;
61411;SDS011;47278;49.732;7.690;2023-04-24T14:44:49;5.70;;;4.90;;
61411;SDS011;47278;49.732;7.690;2023-04-24T14:47:16;4.78;;;4.28;;
61411;SDS011;47278;49.732;7.690;2023-04-24T14:49:46;5.65;;;4.82;;
61411;SDS011;47278;49.732;7.690;2023-04-24T14:52:15;4.70;;;3.72;;
61411;SDS011;47278;49.732;7.690;2023-04-24T14:54:41;6.47;;;3.80;;
61411;SDS011;47278;49.732;7.690;2023-04-24T14:57:07;5.85;;;3.80;;
61411;SDS011;47278;49.732;7.690;2023-04-24T14:59:33;4.28;;;3.30;;
61411;SDS011;47278;49.732;7.690;2023-04-24T15:01:59;4.75;;;3.15;;
61411;SDS011;47278;49.732;7.690;2023-04-24T15:04:24;3.55;;;3.25;;
61411;SDS011;47278;49.732;7.690;2023-04-24T15:06:51;4.63;;;3.80;;